Time;durP1;ratioP1;P1;durP2;ratioP2;P2;SDS_P1;SDS_P2;PMS_P1;PMS_P2;Temp;Humidity;BMP_temperature;BMP_pressure;BME280_temperature;BME280_humidity;BME280_pressure;Samples;Min_cycle;Max_cycle;Signal;HPM_P1;HPM_P2
2022/03/22 00:00:56;;;;;;;46.42;20.15;;;5.60;99.90;;;;;;5027819;28;20052;-58
2022/03/22 00:03:25;;;;;;;44.13;19.17;;;5.60;99.90;;;;;;5027197;28;20497;-58
2022/03/22 00:05:58;;;;;;;45.95;19.77;;;5.60;99.90;;;;;;5027899;28;20041;-58
2022/03/22 00:08:26;;;;;;;49.25;18.48;;;5.50;99.90;;;;;;5027822;28;20060;-58
2022/03/22 00:10:54;;;;;;;48.33;20.55;;;5.50;99.90;;;;;;5023133;28;20053;-57
2022/03/22 00:13:21;;;;;;;50.88;20.05;;;5.50;99.90;;;;;;5018741;28;20060;-57
2022/03/22 00:15:50;;;;;;;51.80;20.15;;;5.50;99.90;;;;;;5027735;28;20056;-59
2022/03/22 00:18:39;;;;;;;50.38;20.73;;;5.40;99.90;;;;;;5027569;28;20029;-59
2022/03/22 00:21:06;;;;;;;63.08;22.45;;;5.40;99.90;;;;;;5027960;28;20108;-59
2022/03/22 00:23:35;;;;;;;48.38;20.38;;;5.40;99.90;;;;;;5027674;28;20037;-58
2022/03/22 00:26:03;;;;;;;49.88;19.80;;;5.40;99.90;;;;;;5023070;28;20065;-58
2022/03/22 00:28:31;;;;;;;47.28;21.35;;;5.40;99.90;;;;;;5020857;28;20347;-58
2022/03/22 00:30:59;;;;;;;47.13;20.67;;;5.40;99.90;;;;;;5028505;28;20054;-58
2022/03/22 00:33:26;;;;;;;47.05;20.40;;;5.30;99.90;;;;;;5031193;28;20095;-58
2022/03/22 00:35:54;;;;;;;44.72;18.30;;;5.30;99.90;;;;;;5013892;28;20046;-59
2022/03/22 00:38:22;;;;;;;47.13;20.17;;;5.30;99.90;;;;;;5013804;28;20041;-59
2022/03/22 00:40:51;;;;;;;49.20;21.33;;;5.30;99.90;;;;;;5029195;28;20048;-58
2022/03/22 00:43:19;;;;;;;52.92;21.55;;;5.30;99.90;;;;;;5021671;28;20041;-58
2022/03/22 00:45:47;;;;;;;54.08;21.83;;;5.30;99.90;;;;;;5031588;28;20045;-59
2022/03/22 00:48:16;;;;;;;53.45;19.95;;;5.20;99.90;;;;;;5031116;28;20045;-58
2022/03/22 00:50:47;;;;;;;54.08;22.33;;;5.20;99.90;;;;;;5017047;28;20045;-59
2022/03/22 00:53:18;;;;;;;48.60;20.35;;;5.20;99.90;;;;;;5031054;28;20054;-58
2022/03/22 00:55:48;;;;;;;49.67;20.38;;;5.20;99.90;;;;;;5030908;28;20037;-57
2022/03/22 00:58:17;;;;;;;47.65;20.50;;;5.20;99.90;;;;;;5013052;28;20044;-58
2022/03/22 01:00:45;;;;;;;55.72;23.05;;;5.20;99.90;;;;;;5030888;28;20440;-59
2022/03/22 01:03:14;;;;;;;49.80;22.40;;;5.10;99.90;;;;;;5028069;28;20046;-58
2022/03/22 01:05:42;;;;;;;57.65;22.02;;;5.10;99.90;;;;;;5027929;28;20056;-59
2022/03/22 01:08:13;;;;;;;56.70;22.13;;;5.10;99.90;;;;;;5030761;28;20049;-57
2022/03/22 01:10:42;;;;;;;51.00;21.48;;;5.10;99.90;;;;;;5029961;28;20045;-58
2022/03/22 01:13:11;;;;;;;55.95;23.02;;;5.10;99.90;;;;;;5025972;28;20049;-58
2022/03/22 01:15:42;;;;;;;50.40;22.20;;;5.00;99.90;;;;;;5013744;28;20041;-58
2022/03/22 01:18:12;;;;;;;51.33;21.33;;;5.00;99.90;;;;;;5023559;28;20052;-58
2022/03/22 01:20:42;;;;;;;;;;;5.00;99.90;;;;;;5031130;28;20052;-59
2022/03/22 01:23:11;;;;;;;52.00;19.92;;;5.00;99.90;;;;;;5028395;28;19921;-59
2022/03/22 01:25:41;;;;;;;53.60;22.73;;;5.00;99.90;;;;;;5030673;28;20045;-59
2022/03/22 01:28:12;;;;;;;50.28;19.85;;;5.00;99.90;;;;;;5030068;28;20054;-59
2022/03/22 01:30:40;;;;;;;52.72;23.45;;;4.90;99.90;;;;;;5030385;28;20045;-59
2022/03/22 01:33:08;;;;;;;54.22;20.73;;;4.90;99.90;;;;;;5030321;28;20477;-59
2022/03/22 01:35:36;;;;;;;53.20;20.98;;;4.90;99.90;;;;;;5030231;28;20045;-59
2022/03/22 01:38:05;;;;;;;61.15;22.10;;;4.80;99.90;;;;;;5030762;28;20218;-58
2022/03/22 01:40:32;;;;;;;63.28;22.15;;;4.80;99.90;;;;;;5030006;28;20049;-58
2022/03/22 01:43:00;;;;;;;52.92;22.00;;;4.70;99.90;;;;;;5022919;28;20049;-58
2022/03/22 01:45:29;;;;;;;53.72;23.50;;;4.70;99.90;;;;;;5030371;28;20045;-58
2022/03/22 01:47:59;;;;;;;55.80;21.70;;;4.60;99.90;;;;;;5030394;28;20053;-58
2022/03/22 01:50:27;;;;;;;60.17;22.55;;;4.60;99.90;;;;;;5029948;28;20060;-58
2022/03/22 01:52:57;;;;;;;50.55;21.70;;;4.60;99.90;;;;;;5030139;28;20053;-59
2022/03/22 01:55:25;;;;;;;62.85;22.38;;;4.50;99.90;;;;;;5029999;28;20415;-59
2022/03/22 01:57:54;;;;;;;49.63;21.13;;;4.50;99.90;;;;;;5023938;28;20056;-58
2022/03/22 02:00:23;;;;;;;52.03;22.05;;;4.50;99.90;;;;;;5030030;28;20045;-58
2022/03/22 02:05:51;;;;;;;59.00;22.98;;;4.40;99.90;;;;;;5028801;28;20041;-59
2022/03/22 02:08:25;;;;;;;50.30;21.20;;;4.40;99.90;;;;;;5012538;28;20052;-59
2022/03/22 02:10:53;;;;;;;56.88;21.35;;;4.40;99.90;;;;;;5029041;28;20053;-59
2022/03/22 02:13:22;;;;;;;55.70;21.83;;;4.40;99.90;;;;;;5026261;28;20052;-59
2022/03/22 02:15:53;;;;;;;58.30;23.00;;;4.30;99.90;;;;;;5026928;28;20044;-59
2022/03/22 02:18:21;;;;;;;56.40;23.25;;;4.20;99.90;;;;;;5028912;28;20049;-59
2022/03/22 02:20:49;;;;;;;50.00;22.80;;;4.30;99.90;;;;;;5029317;28;20053;-59
2022/03/22 02:23:37;;;;;;;51.25;20.77;;;4.30;99.90;;;;;;5029681;28;20049;-59
2022/03/22 02:26:06;;;;;;;49.90;22.17;;;4.20;99.90;;;;;;5020103;28;20393;-59
2022/03/22 02:28:34;;;;;;;50.83;20.15;;;4.20;99.90;;;;;;5029182;28;20045;-59
2022/03/22 02:31:02;;;;;;;48.42;21.05;;;4.20;99.90;;;;;;5027129;28;20052;-59
2022/03/22 02:33:30;;;;;;;55.22;21.77;;;4.20;99.90;;;;;;5032227;28;20053;-59
2022/03/22 02:35:57;;;;;;;54.70;21.63;;;4.10;99.90;;;;;;5032069;28;20046;-59
2022/03/22 02:38:25;;;;;;;50.38;20.95;;;4.10;99.90;;;;;;5032787;28;20052;-59
2022/03/22 02:40:52;;;;;;;64.45;23.95;;;4.10;99.90;;;;;;5032439;28;20057;-59
2022/03/22 02:43:20;;;;;;;57.80;22.88;;;4.10;99.90;;;;;;5032060;28;20041;-59
2022/03/22 02:45:48;;;;;;;52.45;21.88;;;4.00;99.90;;;;;;5030650;28;20056;-58
2022/03/22 02:48:18;;;;;;;55.85;23.45;;;4.00;99.90;;;;;;5032149;28;20037;-58
2022/03/22 02:50:45;;;;;;;60.30;24.05;;;4.00;99.90;;;;;;5022087;28;20053;-58
2022/03/22 02:53:13;;;;;;;54.97;22.42;;;4.00;99.90;;;;;;5031628;28;20049;-57
2022/03/22 02:55:41;;;;;;;58.58;22.10;;;3.90;99.90;;;;;;5023160;28;20049;-59
2022/03/22 02:58:09;;;;;;;52.83;20.80;;;3.90;99.90;;;;;;5031469;28;20492;-59
2022/03/22 03:00:37;;;;;;;56.08;21.55;;;4.00;99.90;;;;;;5032284;28;20041;-60
2022/03/22 03:03:04;;;;;;;60.85;21.83;;;3.90;99.90;;;;;;5032466;28;20073;-58
2022/03/22 03:05:33;;;;;;;62.40;25.00;;;3.90;99.90;;;;;;5031969;28;20484;-58
2022/03/22 03:08:01;;;;;;;56.15;22.30;;;3.90;99.90;;;;;;5031416;28;20053;-58
2022/03/22 03:10:28;;;;;;;59.67;22.30;;;3.90;99.90;;;;;;5031920;28;20053;-58
2022/03/22 03:13:00;;;;;;;50.13;21.38;;;3.80;99.90;;;;;;5024472;28;20045;-58
2022/03/22 03:15:28;;;;;;;52.38;20.38;;;3.80;99.90;;;;;;5032098;28;20045;-58
2022/03/22 03:17:57;;;;;;;56.63;22.70;;;3.70;99.90;;;;;;5031398;28;20054;-58
2022/03/22 03:20:25;;;;;;;54.03;20.97;;;3.70;99.90;;;;;;5032010;28;20045;-59
2022/03/22 03:22:53;;;;;;;51.13;21.55;;;3.70;99.90;;;;;;5024374;28;20409;-58
2022/03/22 03:25:21;;;;;;;51.78;21.27;;;3.70;99.90;;;;;;5030716;28;20513;-58
2022/03/22 03:27:49;;;;;;;52.38;21.58;;;3.70;99.90;;;;;;5032335;28;20049;-58
2022/03/22 03:30:17;;;;;;;60.03;22.47;;;3.70;99.90;;;;;;5031285;28;20064;-58
2022/03/22 03:32:45;;;;;;;53.50;21.67;;;3.70;99.90;;;;;;5031310;28;20045;-59
2022/03/22 03:35:13;;;;;;;57.10;22.52;;;3.60;99.90;;;;;;5031516;28;20052;-59
2022/03/22 03:37:44;;;;;;;54.40;21.35;;;3.60;99.90;;;;;;5031313;28;20064;-59
2022/03/22 03:40:13;;;;;;;55.13;22.95;;;3.50;99.90;;;;;;5028114;28;20046;-59
2022/03/22 03:42:45;;;;;;;53.88;21.10;;;3.60;99.90;;;;;;5030639;28;20131;-58
2022/03/22 03:48:00;;;;;;;54.15;20.90;;;3.60;99.90;;;;;;5030632;28;20481;-58
2022/03/22 03:50:28;;;;;;;50.65;21.15;;;3.60;99.90;;;;;;5031293;28;20040;-59
2022/03/22 03:52:55;;;;;;;53.42;22.30;;;3.60;99.90;;;;;;5031111;28;20065;-57
2022/03/22 03:55:23;;;;;;;53.47;20.55;;;3.50;99.90;;;;;;5030061;28;20045;-58
2022/03/22 03:57:51;;;;;;;57.42;21.25;;;3.60;99.90;;;;;;5031622;28;20041;-58
2022/03/22 04:00:19;;;;;;;53.15;20.50;;;3.50;99.90;;;;;;5031023;28;20481;-59
2022/03/22 04:02:47;;;;;;;53.25;20.48;;;3.50;99.90;;;;;;5031472;28;20045;-57
2022/03/22 04:05:15;;;;;;;53.92;21.98;;;3.50;99.90;;;;;;5031103;28;20045;-58
2022/03/22 04:07:42;;;;;;;55.90;21.35;;;3.50;99.90;;;;;;5030429;28;20053;-59
2022/03/22 04:10:10;;;;;;;54.50;22.52;;;3.40;99.90;;;;;;5031144;28;20045;-59
2022/03/22 04:12:42;;;;;;;50.47;21.42;;;3.50;99.90;;;;;;5031144;28;20038;-58
2022/03/22 04:15:10;;;;;;;56.17;22.45;;;3.40;99.90;;;;;;5030589;28;20046;-58
2022/03/22 04:17:38;;;;;;;53.22;21.55;;;3.40;99.90;;;;;;5029968;28;20041;-58
2022/03/22 04:20:07;;;;;;;59.00;22.20;;;3.40;99.90;;;;;;5029474;28;20045;-58
2022/03/22 04:22:35;;;;;;;62.55;24.92;;;3.40;99.90;;;;;;5030807;28;20045;-58
2022/03/22 04:25:04;;;;;;;58.22;23.77;;;3.40;99.90;;;;;;5030601;28;20053;-58
2022/03/22 04:33:08;;;;;;;50.45;20.80;;;3.30;99.90;;;;;;5030814;28;20041;-57
2022/03/22 04:35:36;;;;;;;52.80;20.45;;;3.30;99.90;;;;;;5031012;28;20056;-57
2022/03/22 04:38:05;;;;;;;66.63;21.30;;;3.30;99.90;;;;;;5031470;28;20048;-58
2022/03/22 04:40:32;;;;;;;53.47;21.90;;;3.30;99.90;;;;;;5030578;28;20058;-59
2022/03/22 04:43:03;;;;;;;51.13;20.30;;;3.30;99.90;;;;;;5030578;28;20049;-59
2022/03/22 04:45:31;;;;;;;47.80;20.40;;;3.30;99.90;;;;;;5030068;28;20056;-59
2022/03/22 04:47:59;;;;;;;51.80;20.65;;;3.20;99.90;;;;;;5030868;28;20056;-58
2022/03/22 04:50:29;;;;;;;54.85;21.92;;;3.20;99.90;;;;;;5030730;28;20484;-58
2022/03/22 04:58:42;;;;;;;53.35;20.08;;;3.20;99.90;;;;;;5031207;28;20042;-58
2022/03/22 05:01:10;;;;;;;62.10;22.77;;;3.20;99.90;;;;;;5030719;28;20064;-58
2022/03/22 05:03:39;;;;;;;56.35;21.33;;;3.20;99.90;;;;;;5030110;28;20038;-59
2022/03/22 05:08:56;;;;;;;66.22;20.55;;;3.20;99.90;;;;;;5020416;28;20056;-58
2022/03/22 05:11:27;;;;;;;54.47;20.27;;;3.10;99.90;;;;;;5025906;28;20049;-58
2022/03/22 05:13:54;;;;;;;57.75;21.75;;;3.20;99.90;;;;;;5030684;28;20397;-59
2022/03/22 05:16:26;;;;;;;59.00;20.92;;;3.20;99.90;;;;;;5030619;28;20044;-60
2022/03/22 05:18:55;;;;;;;61.38;20.70;;;3.10;99.90;;;;;;5034157;28;20046;-58
2022/03/22 05:21:26;;;;;;;53.72;19.90;;;3.10;99.90;;;;;;5034379;28;20045;-59
2022/03/22 05:23:54;;;;;;;47.35;20.15;;;3.20;99.90;;;;;;5034123;28;20041;-59
2022/03/22 05:26:24;;;;;;;46.83;19.73;;;3.10;99.90;;;;;;5034551;28;20053;-58
2022/03/22 05:28:54;;;;;;;64.43;21.45;;;3.10;99.90;;;;;;5033639;28;20052;-58
2022/03/22 05:31:22;;;;;;;73.37;21.63;;;3.10;99.90;;;;;;5007179;28;20053;-58
2022/03/22 05:33:54;;;;;;;52.47;20.15;;;3.10;99.90;;;;;;5033841;28;20307;-58
2022/03/22 05:36:28;;;;;;;56.88;20.88;;;3.00;99.90;;;;;;5032849;28;20038;-58
2022/03/22 05:38:57;;;;;;;52.60;21.60;;;3.10;99.90;;;;;;5016606;28;20057;-59
2022/03/22 05:41:30;;;;;;;53.65;20.52;;;3.10;99.90;;;;;;5033590;28;20076;-58
2022/03/22 05:43:58;;;;;;;59.45;21.15;;;3.10;99.90;;;;;;5033790;28;20053;-56
2022/03/22 05:46:28;;;;;;;52.60;20.40;;;3.10;99.90;;;;;;5033794;28;20045;-59
2022/03/22 05:48:59;;;;;;;57.35;20.35;;;3.10;99.90;;;;;;5025927;28;20052;-59
2022/03/22 05:51:27;;;;;;;53.03;20.77;;;3.10;99.90;;;;;;5029737;28;20053;-58
2022/03/22 05:53:59;;;;;;;62.90;23.10;;;3.20;99.90;;;;;;5024407;28;20357;-58
2022/03/22 05:56:27;;;;;;;59.38;21.75;;;3.20;99.90;;;;;;5029354;28;20041;-58
2022/03/22 05:58:58;;;;;;;54.15;20.55;;;3.30;99.90;;;;;;5029388;28;20041;-58
2022/03/22 06:01:29;;;;;;;58.88;23.27;;;3.30;99.90;;;;;;5028995;28;20052;-58
2022/03/22 06:03:58;;;;;;;67.43;23.52;;;3.40;99.90;;;;;;5017686;28;20042;-59
2022/03/22 06:06:26;;;;;;;60.58;22.17;;;3.40;99.90;;;;;;4993356;28;20041;-58
2022/03/22 06:08:54;;;;;;;72.65;23.80;;;3.60;99.90;;;;;;5028426;28;20048;-60
2022/03/22 06:11:21;;;;;;;62.28;22.45;;;3.60;99.90;;;;;;5029536;28;20052;-58
2022/03/22 06:13:49;;;;;;;68.38;24.27;;;3.70;99.90;;;;;;5029817;28;20061;-60
2022/03/22 06:16:18;;;;;;;63.42;20.70;;;3.80;99.90;;;;;;5030282;28;20045;-59
2022/03/22 06:18:45;;;;;;;64.18;22.25;;;3.90;99.90;;;;;;5029163;28;20053;-59
2022/03/22 06:21:14;;;;;;;56.17;22.17;;;4.00;99.90;;;;;;5028738;28;20045;-60
2022/03/22 06:23:41;;;;;;;56.65;23.10;;;4.00;99.90;;;;;;5025947;28;20053;-58
2022/03/22 06:26:09;;;;;;;62.50;24.15;;;4.10;99.90;;;;;;5026082;28;20034;-59
2022/03/22 06:28:37;;;;;;;59.65;24.30;;;4.10;99.90;;;;;;5028462;28;20068;-60
2022/03/22 06:31:04;;;;;;;66.45;25.17;;;4.20;99.90;;;;;;5016253;28;20528;-60
2022/03/22 06:33:33;;;;;;;64.82;24.02;;;4.30;99.90;;;;;;5029561;28;20515;-60
2022/03/22 06:36:01;;;;;;;62.00;23.25;;;4.30;99.90;;;;;;5028762;28;20056;-59
2022/03/22 06:38:32;;;;;;;63.10;23.98;;;4.40;99.90;;;;;;5029399;28;20049;-59
2022/03/22 06:41:00;;;;;;;62.85;24.10;;;4.40;99.90;;;;;;4995996;28;20409;-58
2022/03/22 06:43:27;;;;;;;62.58;22.55;;;4.40;99.90;;;;;;5028994;28;20049;-59
2022/03/22 06:45:55;;;;;;;73.97;23.85;;;4.40;99.90;;;;;;5029294;28;20042;-58
2022/03/22 06:48:23;;;;;;;68.07;24.17;;;4.40;99.90;;;;;;5003158;28;20046;-59
2022/03/22 06:50:51;;;;;;;64.47;23.10;;;4.40;99.90;;;;;;5027920;28;20489;-58
2022/03/22 06:53:20;;;;;;;59.78;23.15;;;4.40;99.90;;;;;;5025806;28;20054;-58
2022/03/22 06:55:47;;;;;;;69.05;24.73;;;4.50;99.90;;;;;;5025545;28;20045;-59
2022/03/22 06:58:18;;;;;;;60.95;23.23;;;4.50;99.90;;;;;;5027265;28;20056;-58
2022/03/22 07:00:47;;;;;;;65.47;23.60;;;4.50;99.90;;;;;;5028251;28;20061;-58
2022/03/22 07:03:16;;;;;;;55.45;21.58;;;4.50;99.90;;;;;;5017508;28;20057;-58
2022/03/22 07:05:47;;;;;;;61.50;23.50;;;4.50;99.90;;;;;;5011192;28;20436;-58
2022/03/22 07:08:15;;;;;;;57.13;22.88;;;4.60;99.90;;;;;;5028158;28;20053;-59
2022/03/22 07:11:47;;;;;;;72.70;23.42;;;4.60;99.90;;;;;;5027265;28;20401;-58
2022/03/22 07:13:32;;;;;;;61.67;24.15;;;4.70;99.90;;;;;;5028946;28;20049;-59
2022/03/22 07:16:00;;;;;;;65.63;25.15;;;4.70;99.90;;;;;;5028906;28;20481;-59
2022/03/22 07:18:28;;;;;;;66.88;26.33;;;4.80;99.90;;;;;;5000644;28;20049;-59
2022/03/22 07:20:56;;;;;;;65.35;24.75;;;4.90;99.90;;;;;;5010451;28;20060;-59
2022/03/22 07:23:23;;;;;;;66.28;24.50;;;4.90;99.90;;;;;;5026537;28;20405;-58
2022/03/22 07:25:51;;;;;;;64.13;24.38;;;5.00;99.90;;;;;;5028226;28;20504;-58
2022/03/22 07:28:19;;;;;;;72.80;27.17;;;5.10;99.90;;;;;;5027198;28;20056;-59
2022/03/22 07:30:49;;;;;;;70.95;27.27;;;5.20;99.90;;;;;;5020215;28;20049;-59
2022/03/22 07:33:16;;;;;;;66.60;26.92;;;5.40;99.90;;;;;;5022332;28;20060;-59
2022/03/22 07:35:44;;;;;;;74.18;27.83;;;5.50;99.90;;;;;;5028558;28;20045;-59
2022/03/22 07:38:12;;;;;;;66.47;26.65;;;5.60;99.90;;;;;;5020523;28;20049;-59
2022/03/22 07:40:40;;;;;;;71.15;28.00;;;5.80;99.90;;;;;;5012811;28;20533;-58
2022/03/22 07:43:08;;;;;;;73.35;26.45;;;6.00;99.90;;;;;;5020199;28;20060;-58
2022/03/22 07:45:36;;;;;;;60.00;27.08;;;6.20;99.90;;;;;;5028449;28;20041;-57
2022/03/22 07:48:05;;;;;;;69.95;27.52;;;6.40;99.90;;;;;;5019746;28;20038;-58
2022/03/22 07:53:19;;;;;;;73.30;28.20;;;6.70;99.90;;;;;;5019161;28;20050;-57
2022/03/22 07:55:47;;;;;;;67.70;28.30;;;6.90;99.90;;;;;;5021765;28;20057;-57
2022/03/22 07:58:15;;;;;;;66.47;27.48;;;7.00;99.90;;;;;;5018763;28;20046;-58
2022/03/22 08:00:42;;;;;;;61.70;27.15;;;7.20;99.90;;;;;;5021691;28;20045;-58
2022/03/22 08:03:13;;;;;;;72.10;27.23;;;7.30;99.90;;;;;;5012500;28;20071;-57
2022/03/22 08:05:45;;;;;;;67.50;28.42;;;7.50;99.90;;;;;;5024502;28;20123;-59
2022/03/22 08:08:15;;;;;;;67.32;27.73;;;7.70;99.90;;;;;;5022750;28;20060;-57
2022/03/22 08:11:02;;;;;;;70.18;29.95;;;7.80;99.90;;;;;;5008169;28;20045;-59
2022/03/22 08:13:30;;;;;;;67.50;28.60;;;7.90;99.90;;;;;;5020940;28;20041;-59
2022/03/22 08:15:58;;;;;;;62.08;27.08;;;8.10;99.90;;;;;;5020864;28;20050;-60
2022/03/22 08:18:25;;;;;;;74.35;29.45;;;8.10;99.90;;;;;;5020849;28;20604;-58
2022/03/22 08:20:53;;;;;;;74.53;29.20;;;8.20;99.90;;;;;;4978554;28;20061;-58
2022/03/22 08:23:21;;;;;;;71.18;28.33;;;8.30;99.90;;;;;;5027413;28;20047;-58
2022/03/22 08:25:51;;;;;;;63.50;26.73;;;8.40;99.90;;;;;;5026282;28;20060;-58
2022/03/22 08:28:20;;;;;;;62.95;28.23;;;8.50;99.90;;;;;;5025198;28;20045;-57
2022/03/22 08:30:47;;;;;;;67.40;29.73;;;8.60;99.90;;;;;;5025445;28;20050;-58
2022/03/22 08:33:15;;;;;;;66.95;29.13;;;8.70;99.90;;;;;;5022064;28;20044;-58
2022/03/22 08:35:45;;;;;;;67.43;28.75;;;8.80;99.90;;;;;;5020866;28;20045;-57
2022/03/22 08:38:24;;;;;;;65.82;27.52;;;8.80;99.90;;;;;;5027602;28;20508;-57
2022/03/22 08:40:52;;;;;;;62.75;27.83;;;8.90;99.90;;;;;;5025122;28;20050;-56
2022/03/22 08:43:20;;;;;;;68.90;28.45;;;9.00;99.90;;;;;;5027101;28;20047;-56
2022/03/22 08:45:48;;;;;;;73.28;28.73;;;9.10;99.90;;;;;;4997375;28;20041;-58
2022/03/22 08:48:15;;;;;;;63.42;27.85;;;9.20;99.90;;;;;;5027455;28;20046;-58
2022/03/22 08:50:48;;;;;;;66.63;29.13;;;9.30;99.90;;;;;;5027166;28;20040;-58
2022/03/22 08:53:18;;;;;;;68.72;29.30;;;9.40;99.90;;;;;;5029735;28;20429;-59
2022/03/22 08:55:51;;;;;;;68.32;28.52;;;9.50;99.90;;;;;;5027653;28;20116;-58
2022/03/22 08:58:19;;;;;;;74.20;30.00;;;9.50;99.90;;;;;;5022162;28;20052;-57
2022/03/22 09:00:48;;;;;;;70.03;29.38;;;9.50;99.90;;;;;;5031052;28;20053;-57
2022/03/22 09:03:19;;;;;;;69.88;29.50;;;9.50;99.90;;;;;;5030875;28;20041;-58
2022/03/22 09:08:36;;;;;;;69.75;28.55;;;9.70;99.90;;;;;;5023907;28;20045;-58
2022/03/22 09:11:04;;;;;;;63.63;28.90;;;9.70;99.90;;;;;;5027614;28;20501;-58
2022/03/22 09:13:39;;;;;;;68.88;29.40;;;9.70;99.90;;;;;;5011510;28;20502;-58
2022/03/22 09:16:09;;;;;;;66.35;28.30;;;9.80;99.90;;;;;;5016471;28;20496;-57
2022/03/22 09:18:40;;;;;;;60.75;27.25;;;9.90;99.90;;;;;;5028672;28;20075;-58
2022/03/22 09:21:10;;;;;;;62.20;26.92;;;10.00;99.90;;;;;;5021995;28;20064;-57
2022/03/22 09:23:40;;;;;;;57.45;26.27;;;10.10;99.90;;;;;;5014399;28;20053;-58
2022/03/22 09:26:08;;;;;;;61.45;27.75;;;10.20;99.90;;;;;;5011380;28;20046;-58
2022/03/22 09:28:37;;;;;;;62.20;27.80;;;10.30;99.90;;;;;;5021105;28;20064;-57
2022/03/22 09:31:07;;;;;;;64.30;27.85;;;10.50;99.90;;;;;;5029875;28;20056;-57
2022/03/22 09:33:38;;;;;;;63.95;28.58;;;10.60;99.90;;;;;;5026606;28;20046;-58
2022/03/22 09:36:06;;;;;;;62.95;25.77;;;10.70;99.90;;;;;;5030405;28;20041;-57
2022/03/22 09:38:34;;;;;;;56.05;26.60;;;10.80;99.90;;;;;;5030479;28;20045;-58
2022/03/22 09:41:02;;;;;;;67.22;27.88;;;10.90;99.90;;;;;;5030366;28;20048;-56
2022/03/22 09:43:33;;;;;;;63.67;27.65;;;11.00;99.90;;;;;;5030846;28;20041;-57
2022/03/22 09:46:04;;;;;;;66.80;28.02;;;11.10;99.90;;;;;;5029689;28;20512;-57
2022/03/22 09:48:33;;;;;;;56.45;27.10;;;11.20;99.90;;;;;;5023811;28;20949;-58
2022/03/22 09:53:51;;;;;;;58.58;27.35;;;11.50;99.90;;;;;;5029946;28;20049;-58
2022/03/22 09:56:20;;;;;;;61.38;27.25;;;11.70;99.90;;;;;;5028367;28;20509;-58
2022/03/22 09:58:48;;;;;;;60.60;28.02;;;11.80;99.90;;;;;;5022595;28;20050;-58
2022/03/22 10:01:15;;;;;;;57.92;25.85;;;11.90;99.90;;;;;;5031341;28;20049;-58
2022/03/22 10:03:53;;;;;;;59.45;25.20;;;12.00;99.90;;;;;;5026591;28;20064;-58
2022/03/22 10:06:22;;;;;;;57.15;25.15;;;12.00;99.90;;;;;;5029994;28;20045;-58
2022/03/22 10:08:50;;;;;;;63.80;27.95;;;12.20;99.90;;;;;;5030078;28;20393;-58
2022/03/22 10:11:18;;;;;;;64.22;26.88;;;12.40;99.90;;;;;;5030359;28;20045;-58
2022/03/22 10:13:53;;;;;;;58.25;26.17;;;12.60;99.90;;;;;;5029691;28;20056;-58
2022/03/22 10:16:22;;;;;;;55.38;26.35;;;12.80;99.90;;;;;;5030087;28;20384;-58
2022/03/22 10:18:50;;;;;;;56.33;26.52;;;12.90;99.90;;;;;;5027210;28;20049;-59
2022/03/22 10:21:18;;;;;;;53.47;24.55;;;13.10;99.90;;;;;;5029505;28;20056;-58
2022/03/22 10:23:51;;;;;;;53.67;24.50;;;13.20;99.90;;;;;;5028831;28;20057;-57
2022/03/22 10:26:19;;;;;;;51.58;23.88;;;13.40;99.90;;;;;;5029809;28;20369;-58
2022/03/22 10:28:53;;;;;;;51.60;23.17;;;13.50;99.90;;;;;;5028361;28;20049;-59
2022/03/22 10:31:40;;;;;;;44.03;21.35;;;13.70;99.90;;;;;;5029941;28;20056;-58
2022/03/22 10:34:10;;;;;;;45.25;22.70;;;13.90;99.90;;;;;;5028769;28;20052;-58
2022/03/22 10:36:40;;;;;;;44.03;21.73;;;14.00;99.90;;;;;;5029752;28;20053;-58
2022/03/22 10:39:10;;;;;;;50.67;22.90;;;14.10;99.90;;;;;;5029460;28;20053;-58
2022/03/22 10:41:43;;;;;;;44.58;20.27;;;14.30;99.90;;;;;;5028938;28;20064;-58
2022/03/22 10:44:14;;;;;;;44.85;21.58;;;14.30;99.90;;;;;;5028822;28;20045;-58
2022/03/22 10:46:45;;;;;;;45.08;21.50;;;14.40;99.90;;;;;;5028699;28;20548;-58
2022/03/22 10:49:15;;;;;;;39.22;21.52;;;14.50;99.90;;;;;;5025546;28;20064;-58
2022/03/22 10:51:52;;;;;;;40.97;21.48;;;14.60;99.90;;;;;;5025193;28;20401;-58
2022/03/22 10:54:21;;;;;;;55.17;24.67;;;14.70;99.90;;;;;;5025594;28;20461;-58
2022/03/22 10:56:54;;;;;;;44.28;22.65;;;14.80;99.90;;;;;;5022015;28;20408;-59
2022/03/22 10:59:27;;;;;;;48.28;23.88;;;14.80;99.90;;;;;;5028139;28;20064;-58
2022/03/22 11:01:57;;;;;;;46.92;23.63;;;14.90;99.90;;;;;;5029297;28;20046;-57
2022/03/22 11:04:26;;;;;;;42.47;21.75;;;14.90;99.90;;;;;;5014907;28;20075;-59
2022/03/22 11:07:02;;;;;;;45.42;23.10;;;15.00;99.90;;;;;;5009690;28;20060;-59
2022/03/22 11:09:31;;;;;;;48.25;22.70;;;15.00;99.90;;;;;;5028277;28;20041;-59
2022/03/22 11:12:01;;;;;;;47.30;22.92;;;15.10;99.90;;;;;;5028308;28;20050;-58
2022/03/22 11:14:29;;;;;;;50.30;25.65;;;15.10;99.90;;;;;;5027583;28;20049;-58
2022/03/22 11:16:57;;;;;;;44.13;23.00;;;15.10;99.90;;;;;;5028151;28;20041;-59
2022/03/22 11:19:26;;;;;;;51.50;24.30;;;15.10;99.90;;;;;;5017372;28;20046;-59
2022/03/22 11:22:03;;;;;;;54.08;24.85;;;15.20;99.90;;;;;;5026428;28;20050;-59
2022/03/22 11:24:30;;;;;;;43.97;22.48;;;15.20;99.90;;;;;;5026138;28;20037;-59
2022/03/22 11:26:58;;;;;;;45.33;22.27;;;15.30;99.90;;;;;;5028512;28;20056;-59
2022/03/22 11:29:26;;;;;;;46.55;24.05;;;15.40;99.90;;;;;;5028199;28;20045;-59
2022/03/22 11:34:41;;;;;;;44.75;23.25;;;15.70;99.90;;;;;;5021178;28;20535;-58
2022/03/22 11:37:10;;;;;;;52.78;25.60;;;15.70;99.90;;;;;;5027042;28;20048;-58
2022/03/22 11:42:26;;;;;;;49.35;25.05;;;16.00;99.90;;;;;;5028635;28;20057;-59
2022/03/22 11:44:58;;;;;;;47.42;24.33;;;16.20;99.90;;;;;;5016859;28;20041;-58
2022/03/22 11:47:37;;;;;;;51.90;23.85;;;16.40;99.90;;;;;;5028144;28;20493;-58
2022/03/22 11:50:07;;;;;;;50.22;24.15;;;16.60;99.40;;;;;;5026493;28;20049;-58
2022/03/22 11:52:39;;;;;;;48.13;25.67;;;16.80;98.50;;;;;;5026487;28;20362;-58
2022/03/22 11:55:09;;;;;;;43.50;23.02;;;17.00;97.90;;;;;;5022039;28;20061;-58
2022/03/22 11:57:41;;;;;;;;;;;17.30;98.00;;;;;;5028460;28;20048;-58
2022/03/22 12:00:11;;;;;;;47.80;24.77;;;17.50;96.40;;;;;;5027689;28;19932;-59
2022/03/22 12:02:43;;;;;;;43.08;24.45;;;17.70;95.90;;;;;;5012900;28;20048;-58
2022/03/22 12:05:11;;;;;;;46.28;22.85;;;18.00;94.20;;;;;;5014608;28;20049;-58
2022/03/22 12:07:41;;;;;;;46.70;24.75;;;18.10;94.50;;;;;;5020356;28;20061;-59
2022/03/22 12:10:15;;;;;;;43.35;23.83;;;18.30;93.70;;;;;;5028097;28;20109;-59
2022/03/22 12:12:51;;;;;;;45.15;23.10;;;18.60;92.70;;;;;;5017948;28;20042;-59
2022/03/22 12:15:20;;;;;;;42.30;24.55;;;18.80;91.10;;;;;;5019446;28;20041;-59
2022/03/22 12:17:48;;;;;;;46.13;24.13;;;18.90;89.50;;;;;;5019879;28;20045;-59
2022/03/22 12:20:19;;;;;;;50.63;22.95;;;19.00;87.90;;;;;;5019468;28;20046;-59
2022/03/22 12:22:59;;;;;;;42.03;24.15;;;19.20;88.60;;;;;;5019882;28;20955;-59
2022/03/22 12:25:30;;;;;;;45.38;25.42;;;19.40;85.20;;;;;;5015246;28;20041;-59
2022/03/22 12:28:10;;;;;;;42.00;24.00;;;19.60;85.90;;;;;;5015000;28;20042;-59
2022/03/22 12:30:40;;;;;;;40.33;23.00;;;19.70;81.70;;;;;;5006489;28;20046;-59
2022/03/22 12:33:14;;;;;;;;;;;19.90;80.60;;;;;;5021909;28;20389;-59
2022/03/22 12:35:43;;;;;;;46.22;23.50;;;20.00;79.30;;;;;;5019711;28;19921;-59
2022/03/22 12:38:11;;;;;;;42.03;23.83;;;20.20;78.60;;;;;;5024213;28;20049;-59
2022/03/22 12:40:39;;;;;;;53.75;24.73;;;20.30;76.70;;;;;;5023044;28;20045;-59
2022/03/22 12:43:11;;;;;;;47.97;23.77;;;20.40;76.40;;;;;;5011592;28;20045;-59
2022/03/22 12:45:45;;;;;;;39.88;23.42;;;20.50;75.50;;;;;;5012728;28;20049;-59
2022/03/22 12:48:18;;;;;;;40.03;22.88;;;20.60;74.40;;;;;;5022007;28;20401;-58
2022/03/22 12:50:54;;;;;;;46.03;23.38;;;20.70;74.00;;;;;;5025809;28;20058;-59
2022/03/22 12:53:22;;;;;;;42.70;23.70;;;20.70;72.60;;;;;;5031837;28;20041;-59
2022/03/22 12:55:50;;;;;;;49.47;25.15;;;20.70;73.60;;;;;;5029070;28;20057;-59
2022/03/22 12:58:28;;;;;;;51.28;26.30;;;20.80;72.20;;;;;;5030892;28;20056;-59
2022/03/22 13:00:58;;;;;;;49.03;26.10;;;20.80;71.50;;;;;;5022583;28;20045;-59
2022/03/22 13:03:29;;;;;;;41.70;23.25;;;20.80;72.60;;;;;;5003975;28;20068;-59
2022/03/22 13:05:58;;;;;;;46.05;23.80;;;20.80;71.70;;;;;;5024590;28;20061;-60
2022/03/22 13:11:26;;;;;;;38.60;22.75;;;20.90;70.70;;;;;;5027871;28;20041;-59
2022/03/22 13:11:27;;;;;;;44.85;25.65;;;20.80;70.00;;;;;;5013145;28;20050;-59
2022/03/22 13:16:50;;;;;;;44.00;25.45;;;20.10;73.20;;;;;;5012551;28;20046;-59
2022/03/22 13:19:18;;;;;;;43.78;22.75;;;20.00;74.40;;;;;;4997150;28;20054;-59
2022/03/22 13:21:46;;;;;;;47.67;24.60;;;20.20;75.20;;;;;;5019222;28;20053;-59
2022/03/22 13:24:40;;;;;;;42.83;23.50;;;20.50;73.10;;;;;;5022191;28;20053;-59